sensor_id;sensor_type;location;lat;lon;timestamp;pressure;altitude;pressure_sealevel;temperature;humidity
13456;BME280;6800;50.940;6.940;2023-05-21T00:02:49;100893.63;;;25.22;39.15
13456;BME280;6800;50.940;6.940;2023-05-21T00:06:51;100892.00;;;24.27;41.17
13456;BME280;6800;50.940;6.940;2023-05-21T00:10:53;100891.53;;;25.40;38.93
13456;BME280;6800;50.940;6.940;2023-05-21T00:14:54;100890.16;;;25.21;39.37
13456;BME280;6800;50.940;6.940;2023-05-21T00:18:56;100877.31;;;25.17;39.03
13456;BME280;6800;50.940;6.940;2023-05-21T00:22:59;100879.28;;;25.23;38.89
13456;BME280;6800;50.940;6.940;2023-05-21T00:27:03;100870.66;;;25.13;39.39
13456;BME280;6800;50.940;6.940;2023-05-21T00:31:04;100869.63;;;25.14;39.05
13456;BME280;6800;50.940;6.940;2023-05-21T00:35:07;100859.72;;;25.00;39.49
13456;BME280;6800;50.940;6.940;2023-05-21T00:39:08;100858.09;;;24.91;39.71
13456;BME280;6800;50.940;6.940;2023-05-21T00:43:10;100858.09;;;24.91;39.96
13456;BME280;6800;50.940;6.940;2023-05-21T00:47:12;100852.25;;;24.87;40.06
13456;BME280;6800;50.940;6.940;2023-05-21T00:51:14;100853.84;;;25.04;39.45
13456;BME280;6800;50.940;6.940;2023-05-21T00:55:17;100855.03;;;25.02;39.73
13456;BME280;6800;50.940;6.940;2023-05-21T00:59:18;100852.00;;;24.74;39.86
13456;BME280;6800;50.940;6.940;2023-05-21T01:03:21;100846.59;;;24.82;40.08
13456;BME280;6800;50.940;6.940;2023-05-21T01:07:23;100843.97;;;25.05;39.16
13456;BME280;6800;50.940;6.940;2023-05-21T01:11:36;100842.53;;;24.94;39.76
13456;BME280;6800;50.940;6.940;2023-05-21T01:15:39;100847.44;;;24.83;39.79
13456;BME280;6800;50.940;6.940;2023-05-21T01:19:42;100849.97;;;24.76;40.17
13456;BME280;6800;50.940;6.940;2023-05-21T01:23:44;100846.41;;;24.84;39.98
13456;BME280;6800;50.940;6.940;2023-05-21T01:27:46;100841.06;;;24.84;40.00
13456;BME280;6800;50.940;6.940;2023-05-21T01:31:58;100837.66;;;24.59;40.80
13456;BME280;6800;50.940;6.940;2023-05-21T01:36:24;100835.78;;;24.67;40.39
13456;BME280;6800;50.940;6.940;2023-05-21T01:40:32;100834.09;;;24.83;39.72
13456;BME280;6800;50.940;6.940;2023-05-21T01:44:35;100824.25;;;24.83;40.34
13456;BME280;6800;50.940;6.940;2023-05-21T01:48:37;100828.50;;;24.61;40.08
13456;BME280;6800;50.940;6.940;2023-05-21T01:52:47;100828.44;;;24.77;39.89
13456;BME280;6800;50.940;6.940;2023-05-21T01:56:49;100830.06;;;24.87;39.72
13456;BME280;6800;50.940;6.940;2023-05-21T02:00:51;100831.78;;;24.71;40.14
13456;BME280;6800;50.940;6.940;2023-05-21T02:04:53;100823.97;;;24.62;40.37
13456;BME280;6800;50.940;6.940;2023-05-21T02:08:54;100833.66;;;24.63;40.68
13456;BME280;6800;50.940;6.940;2023-05-21T02:12:56;100826.16;;;24.58;40.14
13456;BME280;6800;50.940;6.940;2023-05-21T02:16:59;100838.25;;;24.38;40.86
13456;BME280;6800;50.940;6.940;2023-05-21T02:21:01;100826.41;;;24.41;40.78
13456;BME280;6800;50.940;6.940;2023-05-21T02:25:03;100829.19;;;24.47;40.54
13456;BME280;6800;50.940;6.940;2023-05-21T02:29:04;100831.72;;;24.49;40.85
13456;BME280;6800;50.940;6.940;2023-05-21T02:33:06;100822.69;;;24.50;40.29
13456;BME280;6800;50.940;6.940;2023-05-21T02:37:09;100817.72;;;24.47;40.25
13456;BME280;6800;50.940;6.940;2023-05-21T02:41:11;100815.50;;;24.50;40.28
13456;BME280;6800;50.940;6.940;2023-05-21T02:45:12;100813.47;;;24.14;41.14
13456;BME280;6800;50.940;6.940;2023-05-21T02:49:14;100816.91;;;24.38;40.46
13456;BME280;6800;50.940;6.940;2023-05-21T02:53:15;100818.81;;;24.06;41.59
13456;BME280;6800;50.940;6.940;2023-05-21T02:57:17;100806.88;;;24.40;41.11
13456;BME280;6800;50.940;6.940;2023-05-21T03:01:18;100810.81;;;23.97;41.60
13456;BME280;6800;50.940;6.940;2023-05-21T03:05:20;100816.34;;;23.72;42.37
13456;BME280;6800;50.940;6.940;2023-05-21T03:09:21;100801.00;;;23.90;42.06
13456;BME280;6800;50.940;6.940;2023-05-21T03:13:23;100801.91;;;24.29;41.22
13456;BME280;6800;50.940;6.940;2023-05-21T03:17:24;100795.59;;;24.22;40.96
13456;BME280;6800;50.940;6.940;2023-05-21T03:21:26;100789.44;;;24.14;41.07
13456;BME280;6800;50.940;6.940;2023-05-21T03:25:30;100798.25;;;24.22;41.52
13456;BME280;6800;50.940;6.940;2023-05-21T03:29:32;100803.31;;;24.17;41.18
13456;BME280;6800;50.940;6.940;2023-05-21T03:33:33;100803.00;;;24.04;41.41
13456;BME280;6800;50.940;6.940;2023-05-21T03:37:35;100804.66;;;24.13;41.20
13456;BME280;6800;50.940;6.940;2023-05-21T03:41:36;100798.63;;;24.03;41.37
13456;BME280;6800;50.940;6.940;2023-05-21T03:45:38;100795.09;;;24.27;41.36
13456;BME280;6800;50.940;6.940;2023-05-21T03:49:43;100796.31;;;24.08;41.31
13456;BME280;6800;50.940;6.940;2023-05-21T03:53:45;100796.81;;;23.95;41.56
13456;BME280;6800;50.940;6.940;2023-05-21T03:57:46;100800.66;;;23.20;43.24
13456;BME280;6800;50.940;6.940;2023-05-21T04:01:48;100801.31;;;24.11;42.21
13456;BME280;6800;50.940;6.940;2023-05-21T04:05:49;100797.91;;;24.33;41.31
13456;BME280;6800;50.940;6.940;2023-05-21T04:09:51;100790.88;;;24.40;40.99
13456;BME280;6800;50.940;6.940;2023-05-21T04:13:53;100790.03;;;24.40;40.75
13456;BME280;6800;50.940;6.940;2023-05-21T04:17:54;100797.59;;;24.28;41.42
13456;BME280;6800;50.940;6.940;2023-05-21T04:21:56;100793.34;;;24.42;40.89
13456;BME280;6800;50.940;6.940;2023-05-21T04:25:58;100792.94;;;24.22;41.12
13456;BME280;6800;50.940;6.940;2023-05-21T04:30:02;100785.81;;;24.53;40.80
13456;BME280;6800;50.940;6.940;2023-05-21T04:34:04;100791.97;;;24.54;40.68
13456;BME280;6800;50.940;6.940;2023-05-21T04:38:06;100789.66;;;24.51;41.12
13456;BME280;6800;50.940;6.940;2023-05-21T04:42:08;100803.53;;;24.46;40.57
13456;BME280;6800;50.940;6.940;2023-05-21T04:46:11;100803.28;;;24.64;40.53
13456;BME280;6800;50.940;6.940;2023-05-21T04:50:13;100801.59;;;24.63;40.41
13456;BME280;6800;50.940;6.940;2023-05-21T04:54:14;100795.56;;;24.69;40.63
13456;BME280;6800;50.940;6.940;2023-05-21T04:58:16;100795.09;;;24.65;40.77
13456;BME280;6800;50.940;6.940;2023-05-21T05:02:19;100796.16;;;24.87;40.32
13456;BME280;6800;50.940;6.940;2023-05-21T05:06:20;100800.16;;;24.91;40.22
13456;BME280;6800;50.940;6.940;2023-05-21T05:10:22;100789.53;;;24.75;40.17
13456;BME280;6800;50.940;6.940;2023-05-21T05:14:23;100803.22;;;25.03;39.69
13456;BME280;6800;50.940;6.940;2023-05-21T05:18:25;100797.28;;;25.15;39.61
13456;BME280;6800;50.940;6.940;2023-05-21T05:22:26;100801.84;;;25.15;39.40
13456;BME280;6800;50.940;6.940;2023-05-21T05:26:28;100803.72;;;25.29;39.58
13456;BME280;6800;50.940;6.940;2023-05-21T05:30:29;100807.88;;;25.09;39.46
13456;BME280;6800;50.940;6.940;2023-05-21T05:34:31;100798.31;;;25.14;39.26
13456;BME280;6800;50.940;6.940;2023-05-21T05:38:33;100796.34;;;25.31;39.40
13456;BME280;6800;50.940;6.940;2023-05-21T05:42:34;100794.69;;;25.30;38.89
13456;BME280;6800;50.940;6.940;2023-05-21T05:46:36;100795.31;;;25.17;39.70
13456;BME280;6800;50.940;6.940;2023-05-21T05:50:38;100787.22;;;25.48;38.56
13456;BME280;6800;50.940;6.940;2023-05-21T05:54:39;100787.88;;;25.50;39.21
13456;BME280;6800;50.940;6.940;2023-05-21T05:58:40;100789.28;;;25.61;38.99
13456;BME280;6800;50.940;6.940;2023-05-21T06:02:42;100786.00;;;25.88;38.51
13456;BME280;6800;50.940;6.940;2023-05-21T06:06:43;100774.66;;;26.15;37.75
13456;BME280;6800;50.940;6.940;2023-05-21T06:10:45;100786.94;;;26.39;37.23
13456;BME280;6800;50.940;6.940;2023-05-21T06:14:46;100786.50;;;26.71;37.02
13456;BME280;6800;50.940;6.940;2023-05-21T06:18:49;100774.56;;;26.88;36.74
13456;BME280;6800;50.940;6.940;2023-05-21T06:22:50;100779.50;;;26.70;37.35
13456;BME280;6800;50.940;6.940;2023-05-21T06:26:52;100774.97;;;27.06;36.34
13456;BME280;6800;50.940;6.940;2023-05-21T06:30:53;100772.41;;;27.19;35.90
13456;BME280;6800;50.940;6.940;2023-05-21T06:34:55;100772.81;;;27.37;35.95
13456;BME280;6800;50.940;6.940;2023-05-21T06:38:56;100784.19;;;27.67;35.43
13456;BME280;6800;50.940;6.940;2023-05-21T06:42:57;100766.28;;;28.42;34.81
13456;BME280;6800;50.940;6.940;2023-05-21T06:47:00;100772.94;;;29.66;32.89
13456;BME280;6800;50.940;6.940;2023-05-21T06:51:01;100773.38;;;30.53;31.62
13456;BME280;6800;50.940;6.940;2023-05-21T06:55:03;100768.97;;;31.34;29.45
13456;BME280;6800;50.940;6.940;2023-05-21T06:59:05;100777.13;;;31.77;29.00
13456;BME280;6800;50.940;6.940;2023-05-21T07:03:06;100779.69;;;33.10;27.51
13456;BME280;6800;50.940;6.940;2023-05-21T07:07:09;100782.84;;;32.41;27.38
13456;BME280;6800;50.940;6.940;2023-05-21T07:11:10;100793.69;;;32.23;27.82
13456;BME280;6800;50.940;6.940;2023-05-21T07:15:12;100793.28;;;32.74;27.30
13456;BME280;6800;50.940;6.940;2023-05-21T07:19:14;100782.72;;;32.72;27.45
13456;BME280;6800;50.940;6.940;2023-05-21T07:23:15;100793.53;;;32.00;28.36
13456;BME280;6800;50.940;6.940;2023-05-21T07:27:17;100790.31;;;32.09;28.07
13456;BME280;6800;50.940;6.940;2023-05-21T07:31:24;100790.31;;;32.09;27.74
13456;BME280;6800;50.940;6.940;2023-05-21T07:35:26;100789.50;;;32.75;27.17
13456;BME280;6800;50.940;6.940;2023-05-21T07:39:27;100789.50;;;32.75;27.09
13456;BME280;6800;50.940;6.940;2023-05-21T07:43:30;100789.00;;;32.96;26.87
13456;BME280;6800;50.940;6.940;2023-05-21T07:47:31;100790.31;;;32.64;26.99
13456;BME280;6800;50.940;6.940;2023-05-21T07:51:33;100795.88;;;32.14;28.05
13456;BME280;6800;50.940;6.940;2023-05-21T07:55:35;100787.78;;;32.51;27.86
13456;BME280;6800;50.940;6.940;2023-05-21T07:59:36;100777.31;;;33.14;26.87
13456;BME280;6800;50.940;6.940;2023-05-21T08:03:38;100772.97;;;33.65;26.47
13456;BME280;6800;50.940;6.940;2023-05-21T08:07:40;100792.19;;;31.66;28.79
13456;BME280;6800;50.940;6.940;2023-05-21T08:11:41;100787.72;;;32.87;27.90
13456;BME280;6800;50.940;6.940;2023-05-21T08:15:43;100793.38;;;33.27;26.68
13456;BME280;6800;50.940;6.940;2023-05-21T08:19:44;100788.25;;;33.60;25.93
13456;BME280;6800;50.940;6.940;2023-05-21T08:23:46;100780.59;;;34.66;25.26
13456;BME280;6800;50.940;6.940;2023-05-21T08:27:47;100780.50;;;34.61;24.79
13456;BME280;6800;50.940;6.940;2023-05-21T08:31:51;100769.94;;;35.71;23.87
13456;BME280;6800;50.940;6.940;2023-05-21T08:35:52;100764.72;;;36.46;23.65
13456;BME280;6800;50.940;6.940;2023-05-21T08:39:54;100762.34;;;34.10;25.46
13456;BME280;6800;50.940;6.940;2023-05-21T08:43:55;100768.56;;;35.35;24.56
13456;BME280;6800;50.940;6.940;2023-05-21T08:48:00;100766.59;;;36.02;23.19
13456;BME280;6800;50.940;6.940;2023-05-21T08:52:02;100755.31;;;37.07;22.72
13456;BME280;6800;50.940;6.940;2023-05-21T08:56:05;100754.13;;;36.71;23.30
13456;BME280;6800;50.940;6.940;2023-05-21T09:00:07;100759.31;;;35.36;24.35
13456;BME280;6800;50.940;6.940;2023-05-21T09:04:09;100754.44;;;35.88;23.95
13456;BME280;6800;50.940;6.940;2023-05-21T09:08:26;100751.16;;;35.86;24.03
13456;BME280;6800;50.940;6.940;2023-05-21T09:12:30;100737.03;;;37.02;23.02
13456;BME280;6800;50.940;6.940;2023-05-21T09:16:32;100744.34;;;34.72;25.68
13456;BME280;6800;50.940;6.940;2023-05-21T09:20:33;100755.13;;;35.12;25.47
13456;BME280;6800;50.940;6.940;2023-05-21T09:24:35;100752.28;;;36.50;23.17
13456;BME280;6800;50.940;6.940;2023-05-21T09:28:36;100743.91;;;35.08;24.81
13456;BME280;6800;50.940;6.940;2023-05-21T09:32:39;100747.47;;;37.84;22.03
13456;BME280;6800;50.940;6.940;2023-05-21T09:36:40;100747.59;;;38.91;20.74
13456;BME280;6800;50.940;6.940;2023-05-21T09:40:44;100739.13;;;39.53;20.46
13456;BME280;6800;50.940;6.940;2023-05-21T09:44:48;100743.06;;;38.35;21.61
13456;BME280;6800;50.940;6.940;2023-05-21T09:48:49;100738.84;;;38.74;20.89
13456;BME280;6800;50.940;6.940;2023-05-21T09:52:51;100726.84;;;38.85;20.87
13456;BME280;6800;50.940;6.940;2023-05-21T09:56:55;100730.63;;;39.54;20.58
13456;BME280;6800;50.940;6.940;2023-05-21T10:00:57;100729.91;;;32.81;27.98
13456;BME280;6800;50.940;6.940;2023-05-21T10:04:59;100728.78;;;36.92;23.48
13456;BME280;6800;50.940;6.940;2023-05-21T10:09:02;100729.88;;;36.21;24.01
13456;BME280;6800;50.940;6.940;2023-05-21T10:13:11;100716.34;;;37.38;22.90
13456;BME280;6800;50.940;6.940;2023-05-21T10:17:13;100717.44;;;33.33;27.72
13456;BME280;6800;50.940;6.940;2023-05-21T10:21:15;100708.28;;;36.58;24.34
13456;BME280;6800;50.940;6.940;2023-05-21T10:25:17;100704.94;;;37.83;22.23
13456;BME280;6800;50.940;6.940;2023-05-21T10:29:19;100692.50;;;38.22;22.09
13456;BME280;6800;50.940;6.940;2023-05-21T10:33:22;100697.38;;;34.43;26.58
13456;BME280;6800;50.940;6.940;2023-05-21T10:37:25;100687.34;;;37.64;22.67
13456;BME280;6800;50.940;6.940;2023-05-21T10:41:31;100678.94;;;37.75;22.49
13456;BME280;6800;50.940;6.940;2023-05-21T10:45:46;100664.91;;;37.98;22.70
13456;BME280;6800;50.940;6.940;2023-05-21T11:03:03;100654.78;;;37.94;22.79
13456;BME280;6800;50.940;6.940;2023-05-21T11:07:05;100656.56;;;38.45;22.11
13456;BME280;6800;50.940;6.940;2023-05-21T11:11:06;100657.22;;;37.85;22.39
13456;BME280;6800;50.940;6.940;2023-05-21T11:15:14;100652.78;;;39.01;21.52
13456;BME280;6800;50.940;6.940;2023-05-21T11:19:16;100650.31;;;39.10;21.22
13456;BME280;6800;50.940;6.940;2023-05-21T11:23:19;100656.31;;;36.38;24.34
13456;BME280;6800;50.940;6.940;2023-05-21T11:27:40;100642.94;;;40.10;20.28
13456;BME280;6800;50.940;6.940;2023-05-21T11:31:46;100647.84;;;40.57;19.86
13456;BME280;6800;50.940;6.940;2023-05-21T11:39:50;100641.00;;;40.54;19.80
13456;BME280;6800;50.940;6.940;2023-05-21T11:43:59;100628.72;;;40.03;20.86
13456;BME280;6800;50.940;6.940;2023-05-21T11:48:01;100617.31;;;41.02;19.65
13456;BME280;6800;50.940;6.940;2023-05-21T11:52:05;100617.00;;;40.41;20.60
13456;BME280;6800;50.940;6.940;2023-05-21T11:56:13;100615.91;;;40.37;19.98
13456;BME280;6800;50.940;6.940;2023-05-21T12:00:15;100624.63;;;40.05;20.70
13456;BME280;6800;50.940;6.940;2023-05-21T12:04:18;100617.19;;;38.16;22.62
13456;BME280;6800;50.940;6.940;2023-05-21T12:08:22;100621.59;;;35.53;25.96
13456;BME280;6800;50.940;6.940;2023-05-21T12:12:27;100607.97;;;38.37;22.36
13456;BME280;6800;50.940;6.940;2023-05-21T12:16:42;100611.81;;;38.51;22.03
13456;BME280;6800;50.940;6.940;2023-05-21T12:20:44;100615.53;;;38.00;23.05
13456;BME280;6800;50.940;6.940;2023-05-21T12:24:46;100608.91;;;37.86;22.94
13456;BME280;6800;50.940;6.940;2023-05-21T12:28:48;100615.69;;;37.21;23.74
13456;BME280;6800;50.940;6.940;2023-05-21T12:32:50;100611.41;;;36.94;24.30
13456;BME280;6800;50.940;6.940;2023-05-21T12:36:51;100611.91;;;36.91;23.65
13456;BME280;6800;50.940;6.940;2023-05-21T12:40:53;100621.16;;;33.37;29.06
13456;BME280;6800;50.940;6.940;2023-05-21T12:44:55;100623.03;;;34.73;27.40
13456;BME280;6800;50.940;6.940;2023-05-21T12:48:57;100606.44;;;36.00;26.09
13456;BME280;6800;50.940;6.940;2023-05-21T12:52:58;100605.19;;;36.66;25.68
13456;BME280;6800;50.940;6.940;2023-05-21T12:57:13;100595.47;;;35.74;25.90
13456;BME280;6800;50.940;6.940;2023-05-21T13:01:14;100594.59;;;34.14;28.53
13456;BME280;6800;50.940;6.940;2023-05-21T13:05:16;100598.44;;;34.46;28.33
13456;BME280;6800;50.940;6.940;2023-05-21T13:09:18;100596.63;;;35.78;26.51
13456;BME280;6800;50.940;6.940;2023-05-21T13:13:20;100590.66;;;34.21;29.01
13456;BME280;6800;50.940;6.940;2023-05-21T13:17:22;100588.56;;;34.40;28.14
13456;BME280;6800;50.940;6.940;2023-05-21T13:21:23;100595.84;;;33.83;29.37
13456;BME280;6800;50.940;6.940;2023-05-21T13:25:25;100596.94;;;33.82;30.17
13456;BME280;6800;50.940;6.940;2023-05-21T13:29:30;100591.03;;;35.08;28.24
13456;BME280;6800;50.940;6.940;2023-05-21T13:33:31;100591.50;;;35.21;27.89
13456;BME280;6800;50.940;6.940;2023-05-21T13:37:33;100584.63;;;35.14;27.42
13456;BME280;6800;50.940;6.940;2023-05-21T13:41:38;100581.19;;;35.18;27.77
13456;BME280;6800;50.940;6.940;2023-05-21T13:45:39;100578.59;;;35.72;26.89
13456;BME280;6800;50.940;6.940;2023-05-21T13:49:41;100574.09;;;36.04;26.45
13456;BME280;6800;50.940;6.940;2023-05-21T13:53:42;100572.09;;;35.73;27.24
13456;BME280;6800;50.940;6.940;2023-05-21T13:57:44;100568.97;;;35.21;27.99
13456;BME280;6800;50.940;6.940;2023-05-21T14:01:46;100563.28;;;35.61;27.47
13456;BME280;6800;50.940;6.940;2023-05-21T14:05:50;100558.63;;;35.61;27.15
13456;BME280;6800;50.940;6.940;2023-05-21T14:09:53;100549.91;;;35.81;26.76
13456;BME280;6800;50.940;6.940;2023-05-21T14:13:56;100559.16;;;35.80;27.02
13456;BME280;6800;50.940;6.940;2023-05-21T14:17:58;100558.13;;;35.86;26.74
13456;BME280;6800;50.940;6.940;2023-05-21T14:22:00;100567.34;;;34.87;28.72
13456;BME280;6800;50.940;6.940;2023-05-21T14:26:01;100559.22;;;35.25;28.30
13456;BME280;6800;50.940;6.940;2023-05-21T14:30:03;100558.97;;;36.13;26.47
13456;BME280;6800;50.940;6.940;2023-05-21T14:34:05;100562.19;;;36.10;26.55
13456;BME280;6800;50.940;6.940;2023-05-21T14:38:09;100553.34;;;35.71;27.01
13456;BME280;6800;50.940;6.940;2023-05-21T14:42:11;100561.19;;;35.29;27.39
13456;BME280;6800;50.940;6.940;2023-05-21T14:46:12;100555.69;;;35.63;27.04
13456;BME280;6800;50.940;6.940;2023-05-21T14:50:14;100554.22;;;35.55;27.62
13456;BME280;6800;50.940;6.940;2023-05-21T14:54:16;100553.66;;;35.75;27.54
13456;BME280;6800;50.940;6.940;2023-05-21T14:58:18;100550.13;;;35.53;28.40
13456;BME280;6800;50.940;6.940;2023-05-21T15:02:19;100546.19;;;35.44;28.32
13456;BME280;6800;50.940;6.940;2023-05-21T15:06:21;100554.50;;;35.15;28.88
13456;BME280;6800;50.940;6.940;2023-05-21T15:10:23;100541.81;;;35.43;28.06
13456;BME280;6800;50.940;6.940;2023-05-21T15:14:25;100538.53;;;35.41;27.66
13456;BME280;6800;50.940;6.940;2023-05-21T15:18:26;100532.19;;;35.52;27.95
13456;BME280;6800;50.940;6.940;2023-05-21T15:22:32;100543.38;;;34.62;29.14
13456;BME280;6800;50.940;6.940;2023-05-21T15:26:34;100536.91;;;34.85;28.56
13456;BME280;6800;50.940;6.940;2023-05-21T15:30:38;100528.03;;;35.27;28.14
13456;BME280;6800;50.940;6.940;2023-05-21T15:34:39;100525.38;;;35.11;28.93
13456;BME280;6800;50.940;6.940;2023-05-21T15:38:41;100513.59;;;35.44;28.45
13456;BME280;6800;50.940;6.940;2023-05-21T15:42:42;100513.06;;;35.68;27.78
13456;BME280;6800;50.940;6.940;2023-05-21T15:46:44;100516.22;;;35.17;28.18
13456;BME280;6800;50.940;6.940;2023-05-21T15:50:46;100519.91;;;35.49;27.76
13456;BME280;6800;50.940;6.940;2023-05-21T15:54:47;100524.31;;;35.77;27.61
13456;BME280;6800;50.940;6.940;2023-05-21T15:58:48;100519.22;;;35.59;27.85
13456;BME280;6800;50.940;6.940;2023-05-21T16:02:50;100510.50;;;35.83;27.45
13456;BME280;6800;50.940;6.940;2023-05-21T16:06:52;100513.84;;;35.64;28.19
13456;BME280;6800;50.940;6.940;2023-05-21T16:10:53;100523.53;;;36.03;27.44
13456;BME280;6800;50.940;6.940;2023-05-21T16:14:54;100527.50;;;34.71;29.81
13456;BME280;6800;50.940;6.940;2023-05-21T16:18:56;100517.63;;;35.89;28.41
13456;BME280;6800;50.940;6.940;2023-05-21T16:22:57;100511.75;;;36.24;27.47
13456;BME280;6800;50.940;6.940;2023-05-21T16:26:59;100510.88;;;35.92;28.17
13456;BME280;6800;50.940;6.940;2023-05-21T16:31:01;100505.31;;;36.72;27.10
13456;BME280;6800;50.940;6.940;2023-05-21T16:35:03;100510.28;;;36.43;27.55
13456;BME280;6800;50.940;6.940;2023-05-21T16:39:04;100513.81;;;36.44;30.00
13456;BME280;6800;50.940;6.940;2023-05-21T16:43:09;100525.59;;;36.54;30.42
13456;BME280;6800;50.940;6.940;2023-05-21T16:47:10;100536.94;;;35.88;31.25
13456;BME280;6800;50.940;6.940;2023-05-21T16:51:12;100537.63;;;35.52;32.81
13456;BME280;6800;50.940;6.940;2023-05-21T16:55:13;100555.16;;;35.22;33.53
13456;BME280;6800;50.940;6.940;2023-05-21T16:59:15;100560.78;;;34.83;33.26
13456;BME280;6800;50.940;6.940;2023-05-21T17:03:17;100562.38;;;34.62;35.92
13456;BME280;6800;50.940;6.940;2023-05-21T17:07:18;100559.31;;;34.42;38.56
13456;BME280;6800;50.940;6.940;2023-05-21T17:11:20;100553.22;;;33.78;38.68
13456;BME280;6800;50.940;6.940;2023-05-21T17:15:21;100556.19;;;33.14;39.53
13456;BME280;6800;50.940;6.940;2023-05-21T17:19:23;100567.81;;;32.80;41.90
13456;BME280;6800;50.940;6.940;2023-05-21T17:23:24;100580.63;;;32.73;41.97
13456;BME280;6800;50.940;6.940;2023-05-21T17:27:26;100589.72;;;32.78;41.95
13456;BME280;6800;50.940;6.940;2023-05-21T17:31:27;100615.06;;;32.54;42.34
13456;BME280;6800;50.940;6.940;2023-05-21T17:35:32;100612.34;;;29.33;59.05
13456;BME280;6800;50.940;6.940;2023-05-21T17:39:34;100591.75;;;30.54;53.86
13456;BME280;6800;50.940;6.940;2023-05-21T17:43:35;100592.91;;;29.95;53.07
13456;BME280;6800;50.940;6.940;2023-05-21T17:47:37;100597.38;;;30.08;50.94
13456;BME280;6800;50.940;6.940;2023-05-21T17:51:38;100592.56;;;29.72;51.22
13456;BME280;6800;50.940;6.940;2023-05-21T17:55:40;100580.19;;;29.65;50.97
13456;BME280;6800;50.940;6.940;2023-05-21T17:59:41;100570.91;;;29.54;50.47
13456;BME280;6800;50.940;6.940;2023-05-21T18:03:45;100562.16;;;29.65;50.09
13456;BME280;6800;50.940;6.940;2023-05-21T18:07:47;100573.69;;;29.21;50.89
13456;BME280;6800;50.940;6.940;2023-05-21T18:11:48;100573.00;;;29.46;50.18
13456;BME280;6800;50.940;6.940;2023-05-21T18:15:50;100565.09;;;29.51;50.00
13456;BME280;6800;50.940;6.940;2023-05-21T18:19:51;100574.44;;;29.42;50.03
13456;BME280;6800;50.940;6.940;2023-05-21T18:23:52;100567.53;;;29.65;49.62
13456;BME280;6800;50.940;6.940;2023-05-21T18:27:55;100572.13;;;29.58;49.23
13456;BME280;6800;50.940;6.940;2023-05-21T18:31:56;100568.38;;;29.59;49.67
13456;BME280;6800;50.940;6.940;2023-05-21T18:35:58;100569.38;;;29.71;48.78
13456;BME280;6800;50.940;6.940;2023-05-21T18:39:59;100570.59;;;29.82;48.61
13456;BME280;6800;50.940;6.940;2023-05-21T18:44:01;100568.44;;;29.46;47.98
13456;BME280;6800;50.940;6.940;2023-05-21T18:48:03;100562.97;;;29.79;47.09
13456;BME280;6800;50.940;6.940;2023-05-21T18:52:05;100574.88;;;29.96;46.94
13456;BME280;6800;50.940;6.940;2023-05-21T18:56:06;100570.44;;;29.77;47.05
13456;BME280;6800;50.940;6.940;2023-05-21T19:00:10;100567.25;;;29.86;47.02
13456;BME280;6800;50.940;6.940;2023-05-21T19:04:12;100570.50;;;30.01;47.33
13456;BME280;6800;50.940;6.940;2023-05-21T19:08:14;100570.72;;;30.00;46.52
13456;BME280;6800;50.940;6.940;2023-05-21T19:12:15;100564.50;;;29.99;45.25
13456;BME280;6800;50.940;6.940;2023-05-21T19:16:17;100570.44;;;30.08;45.92
13456;BME280;6800;50.940;6.940;2023-05-21T19:20:22;100576.53;;;29.97;45.09
13456;BME280;6800;50.940;6.940;2023-05-21T19:24:24;100562.63;;;30.00;43.98
13456;BME280;6800;50.940;6.940;2023-05-21T19:28:26;100559.59;;;29.90;44.72
13456;BME280;6800;50.940;6.940;2023-05-21T19:32:27;100561.97;;;29.67;44.74
13456;BME280;6800;50.940;6.940;2023-05-21T19:36:29;100570.84;;;29.74;44.31
13456;BME280;6800;50.940;6.940;2023-05-21T19:40:49;100566.22;;;29.87;44.09
13456;BME280;6800;50.940;6.940;2023-05-21T19:44:50;100578.25;;;29.85;44.45
13456;BME280;6800;50.940;6.940;2023-05-21T19:48:51;100584.50;;;29.72;44.34
13456;BME280;6800;50.940;6.940;2023-05-21T19:52:54;100589.88;;;29.79;44.59
13456;BME280;6800;50.940;6.940;2023-05-21T19:56:57;100588.31;;;29.52;44.76
13456;BME280;6800;50.940;6.940;2023-05-21T20:00:58;100583.28;;;29.75;44.89
13456;BME280;6800;50.940;6.940;2023-05-21T20:05:00;100586.81;;;29.62;44.45
13456;BME280;6800;50.940;6.940;2023-05-21T20:09:05;100583.06;;;29.70;44.13
13456;BME280;6800;50.940;6.940;2023-05-21T20:13:07;100584.28;;;29.67;43.79
13456;BME280;6800;50.940;6.940;2023-05-21T20:17:09;100591.41;;;29.49;44.63
13456;BME280;6800;50.940;6.940;2023-05-21T20:21:15;100588.06;;;29.60;43.78
13456;BME280;6800;50.940;6.940;2023-05-21T20:25:20;100592.63;;;29.53;44.59
13456;BME280;6800;50.940;6.940;2023-05-21T20:29:21;100592.25;;;29.43;44.47
13456;BME280;6800;50.940;6.940;2023-05-21T20:33:23;100589.31;;;29.57;43.90
13456;BME280;6800;50.940;6.940;2023-05-21T20:37:25;100586.47;;;29.46;44.05
13456;BME280;6800;50.940;6.940;2023-05-21T20:41:30;100583.94;;;29.51;44.41
13456;BME280;6800;50.940;6.940;2023-05-21T20:45:36;100587.06;;;29.54;44.05
13456;BME280;6800;50.940;6.940;2023-05-21T20:49:39;100587.53;;;29.31;44.44
13456;BME280;6800;50.940;6.940;2023-05-21T20:53:40;100581.50;;;29.36;45.34
13456;BME280;6800;50.940;6.940;2023-05-21T20:57:42;100581.31;;;29.31;44.55
13456;BME280;6800;50.940;6.940;2023-05-21T21:01:44;100573.66;;;29.41;44.64
13456;BME280;6800;50.940;6.940;2023-05-21T21:05:45;100574.28;;;29.30;45.31
13456;BME280;6800;50.940;6.940;2023-05-21T21:09:47;100577.13;;;29.42;44.95
13456;BME280;6800;50.940;6.940;2023-05-21T21:13:49;100575.31;;;29.36;44.51
13456;BME280;6800;50.940;6.940;2023-05-21T21:17:51;100578.47;;;29.19;45.62
13456;BME280;6800;50.940;6.940;2023-05-21T21:21:52;100580.72;;;29.22;45.81
13456;BME280;6800;50.940;6.940;2023-05-21T21:25:55;100579.91;;;29.09;46.38
13456;BME280;6800;50.940;6.940;2023-05-21T21:29:56;100578.44;;;29.06;45.97
13456;BME280;6800;50.940;6.940;2023-05-21T21:33:58;100573.91;;;29.07;46.14
13456;BME280;6800;50.940;6.940;2023-05-21T21:37:59;100568.94;;;29.04;46.25
13456;BME280;6800;50.940;6.940;2023-05-21T21:42:01;100568.09;;;29.10;46.27